KLAN

Capital Region International Airport

Lansing, Michigan, USA
METAR KLAN 222053Z 24011KT 10SM CLR 14/02 A2998 RMK AO2 SLP157 T01440022 56012
Observed Flight Rules
Oct-22 @ 20:53 UTC (40 minutes ago) Visual Flight Rules
Wind Visibility Clouds
240° at 11 knots 10 miles
  • Clear skies
Temperatures Readings
Current 14°C / 57°F
Dewpoint 2°C / 36°F
Humidity 44%
Altimeter 29.98" Hg
Pressure 1015.7 hPa
Elevation 264
METAR KLAN 222053Z 24011KT 10SM CLR 14/02 A2998 RMK AO2 SLP157 T01440022 56012
Observed Flight Rules
Oct-22 @ 20:53 UTC
(40 minutes ago)
VFR
Wind Visibility
240° at 11 knots 10 miles
Clouds
  • Clear skies
Temperature Dewpoint
14°C / 57°F 2°C / 36°F
Humidity Altimeter Pressure
44% 29.98" Hg 1015.7 hPa